createdAt,value
2018-11-21T00:02:06.551Z,19.73
2018-11-21T00:04:34.988Z,17.60
2018-11-21T00:07:03.409Z,24.57
2018-11-21T00:09:31.896Z,18.33
2018-11-21T00:12:00.361Z,20.07
2018-11-21T00:14:28.778Z,17.00
2018-11-21T00:16:57.220Z,17.37
2018-11-21T00:19:25.646Z,20.03
2018-11-21T00:21:54.124Z,17.60
2018-11-21T00:24:22.576Z,19.00
2018-11-21T00:26:51.238Z,23.10
2018-11-21T00:29:19.760Z,21.03
2018-11-21T00:31:48.194Z,16.37
2018-11-21T00:34:16.681Z,18.03
2018-11-21T00:36:45.142Z,18.53
2018-11-21T00:39:13.608Z,18.63
2018-11-21T00:41:42.163Z,19.60
2018-11-21T00:44:11.406Z,22.83
2018-11-21T00:46:39.848Z,21.23
2018-11-21T00:49:08.281Z,24.43
2018-11-21T00:51:36.762Z,23.53
2018-11-21T00:54:05.534Z,23.03
2018-11-21T00:56:34.011Z,28.00
2018-11-21T00:59:02.417Z,20.90
2018-11-21T01:01:30.856Z,20.20
2018-11-21T01:03:59.327Z,24.17
2018-11-21T01:06:27.748Z,17.70
2018-11-21T01:08:56.339Z,21.77
2018-11-21T01:11:24.871Z,18.47
2018-11-21T01:13:53.225Z,25.10
2018-11-21T01:16:21.717Z,20.67
2018-11-21T01:18:50.136Z,20.00
2018-11-21T01:21:18.560Z,20.53
2018-11-21T01:23:47.029Z,21.57
2018-11-21T01:26:15.487Z,18.63
2018-11-21T01:28:43.910Z,22.90
2018-11-21T01:31:12.535Z,18.33
2018-11-21T01:33:41.029Z,20.47
2018-11-21T01:36:09.398Z,18.90
2018-11-21T01:38:37.873Z,23.17
2018-11-21T01:41:06.324Z,18.83
2018-11-21T01:43:34.764Z,20.03
2018-11-21T01:46:03.306Z,20.73
2018-11-21T01:48:31.664Z,24.10
2018-11-21T01:51:00.124Z,19.03
2018-11-21T01:53:28.589Z,22.50
2018-11-21T01:55:57.017Z,24.27
2018-11-21T01:58:25.485Z,22.60
2018-11-21T02:00:53.905Z,23.20
2018-11-21T02:03:22.370Z,21.50
2018-11-21T02:05:50.801Z,23.97
2018-11-21T02:08:19.230Z,21.80
2018-11-21T02:10:47.680Z,21.00
2018-11-21T02:13:16.097Z,26.00
2018-11-21T02:15:44.573Z,24.60
2018-11-21T02:18:13.308Z,23.30
2018-11-21T02:20:41.762Z,17.63
2018-11-21T02:23:10.259Z,29.37
2018-11-21T02:25:38.675Z,22.60
2018-11-21T02:28:07.222Z,23.80
2018-11-21T02:30:35.665Z,21.90
2018-11-21T02:33:04.107Z,19.50
2018-11-21T02:35:32.574Z,21.97
2018-11-21T02:38:00.998Z,20.00
2018-11-21T02:40:29.483Z,23.50
2018-11-21T02:42:57.953Z,25.03
2018-11-21T02:45:26.387Z,18.60
2018-11-21T02:47:54.830Z,20.30
2018-11-21T02:50:23.303Z,20.10
2018-11-21T02:52:52.105Z,19.83
2018-11-21T02:55:20.546Z,19.57
2018-11-21T02:57:48.985Z,20.93
2018-11-21T03:00:22.702Z,26.60
2018-11-21T03:02:51.132Z,26.53
2018-11-21T03:05:19.601Z,21.27
2018-11-21T03:07:52.264Z,23.00
2018-11-21T03:10:21.923Z,19.67
2018-11-21T03:12:50.376Z,24.80
2018-11-21T03:15:19.050Z,21.30
2018-11-21T03:17:47.652Z,23.37
2018-11-21T03:20:16.615Z,25.13
2018-11-21T03:22:45.384Z,21.20
2018-11-21T03:25:14.001Z,20.27
2018-11-21T03:27:42.441Z,24.50
2018-11-21T03:30:11.937Z,28.20
2018-11-21T03:32:41.105Z,23.20
2018-11-21T03:35:09.922Z,22.50
2018-11-21T03:37:38.349Z,23.00
2018-11-21T03:40:11.363Z,25.87
2018-11-21T03:42:40.152Z,24.17
2018-11-21T03:45:10.221Z,27.40
2018-11-21T03:47:38.718Z,22.20
2018-11-21T03:50:09.060Z,29.33
2018-11-21T03:52:37.831Z,24.40
2018-11-21T03:55:07.074Z,23.00
2018-11-21T03:57:35.541Z,26.50
2018-11-21T04:00:03.992Z,26.77
2018-11-21T04:02:32.412Z,28.03
2018-11-21T04:05:00.875Z,25.97
2018-11-21T04:07:29.305Z,24.97
2018-11-21T04:09:57.733Z,27.10
2018-11-21T04:12:26.183Z,21.83
2018-11-21T04:14:54.616Z,28.20
2018-11-21T04:17:23.085Z,27.77
2018-11-21T04:19:51.529Z,32.17
2018-11-21T04:22:20.012Z,25.10
2018-11-21T04:24:48.416Z,27.73
2018-11-21T04:27:16.840Z,22.23
2018-11-21T04:29:45.415Z,22.20
2018-11-21T04:32:13.873Z,26.00
2018-11-21T04:34:42.372Z,22.83
2018-11-21T04:37:10.831Z,21.03
2018-11-21T04:39:39.276Z,28.40
2018-11-21T04:42:08.556Z,28.03
2018-11-21T04:44:36.173Z,26.60
2018-11-21T04:47:04.637Z,21.67
2018-11-21T04:49:33.092Z,24.67
2018-11-21T04:52:01.568Z,31.03
2018-11-21T04:54:30.325Z,22.03
2018-11-21T04:56:58.795Z,33.57
2018-11-21T04:59:27.248Z,27.70
2018-11-21T05:01:55.711Z,25.70
2018-11-21T05:04:24.160Z,27.00
2018-11-21T05:06:52.631Z,23.00
2018-11-21T05:09:21.073Z,27.73
2018-11-21T05:11:49.517Z,28.87
2018-11-21T05:14:17.981Z,23.07
2018-11-21T05:16:46.511Z,25.00
2018-11-21T05:19:14.972Z,27.73
2018-11-21T05:21:43.412Z,26.07
2018-11-21T05:24:11.961Z,27.17
2018-11-21T05:26:40.436Z,35.47
2018-11-21T05:29:08.875Z,25.63
2018-11-21T05:31:37.437Z,24.00
2018-11-21T05:34:05.882Z,32.10
2018-11-21T05:36:34.616Z,30.93
2018-11-21T05:39:03.153Z,30.70
2018-11-21T05:41:31.602Z,25.13
2018-11-21T05:44:00.080Z,28.87
2018-11-21T05:46:28.584Z,21.90
2018-11-21T05:48:57.336Z,34.70
2018-11-21T05:51:25.808Z,32.80
2018-11-21T05:53:54.220Z,28.73
2018-11-21T05:56:22.727Z,27.80
2018-11-21T05:58:51.149Z,27.70
2018-11-21T06:01:19.729Z,29.17
2018-11-21T06:03:48.148Z,30.07
2018-11-21T06:06:16.866Z,29.07
2018-11-21T06:08:45.483Z,26.47
2018-11-21T06:11:14.109Z,23.77
2018-11-21T06:13:42.601Z,30.93
2018-11-21T06:16:11.338Z,28.37
2018-11-21T06:18:39.784Z,27.93
2018-11-21T06:21:08.233Z,23.83
2018-11-21T06:23:36.991Z,26.30
2018-11-21T06:26:05.940Z,22.90
2018-11-21T06:28:34.449Z,29.03
2018-11-21T06:31:22.083Z,31.63
2018-11-21T06:33:50.507Z,31.33
2018-11-21T06:36:38.020Z,33.60
2018-11-21T06:39:26.839Z,31.57
2018-11-21T06:42:14.331Z,27.07
2018-11-21T06:45:01.784Z,36.97
2018-11-21T06:47:49.366Z,29.43
2018-11-21T06:50:36.830Z,27.40
2018-11-21T06:53:24.742Z,28.73
2018-11-21T06:55:53.409Z,26.17
2018-11-21T06:58:41.040Z,29.30
2018-11-21T07:01:28.486Z,29.10
2018-11-21T07:04:16.135Z,27.70
2018-11-21T07:07:03.597Z,26.67
2018-11-21T07:09:51.205Z,28.37
2018-11-21T07:12:38.682Z,29.10
2018-11-21T07:15:26.678Z,31.93
2018-11-21T07:17:55.117Z,34.53
2018-11-21T07:20:42.646Z,27.00
2018-11-21T07:23:30.091Z,29.97
2018-11-21T07:26:17.659Z,29.13
2018-11-21T07:29:05.151Z,30.27
2018-11-21T07:31:52.655Z,30.50
2018-11-21T07:34:40.147Z,29.03
2018-11-21T07:37:27.714Z,35.10
2018-11-21T07:39:56.154Z,27.10
2018-11-21T07:42:43.722Z,27.00
2018-11-21T07:45:31.605Z,25.97
2018-11-21T07:48:20.585Z,29.93
2018-11-21T07:51:06.536Z,24.70
2018-11-21T07:53:54.027Z,24.60
2018-11-21T07:57:02.725Z,23.90
2018-11-21T07:59:31.966Z,26.80
2018-11-21T08:02:19.443Z,25.50
2018-11-21T08:05:06.944Z,23.50
2018-11-21T08:07:54.450Z,26.23
2018-11-21T08:10:41.966Z,25.70
2018-11-21T08:13:29.423Z,29.57
2018-11-21T08:16:16.902Z,24.17
2018-11-21T08:19:04.371Z,23.40
2018-11-21T08:21:51.850Z,18.23
2018-11-21T08:24:39.311Z,25.73
2018-11-21T08:27:26.883Z,27.57
2018-11-21T08:30:14.394Z,27.70
2018-11-21T08:33:01.958Z,24.63
2018-11-21T08:35:49.406Z,21.83
2018-11-21T08:38:36.998Z,27.33
2018-11-21T08:41:24.666Z,23.83
2018-11-21T08:44:12.314Z,22.60
2018-11-21T08:46:59.779Z,24.30
2018-11-21T08:49:47.273Z,27.87
2018-11-21T08:52:34.750Z,27.27
2018-11-21T08:55:08.818Z,19.63
2018-11-21T08:57:51.353Z,21.90
2018-11-21T09:00:38.965Z,18.93
2018-11-21T09:03:07.929Z,22.80
2018-11-21T09:05:55.603Z,25.30
2018-11-21T09:08:43.224Z,23.30
2018-11-21T09:11:30.833Z,18.10
2018-11-21T09:14:18.384Z,21.53
2018-11-21T09:17:06.083Z,19.63
2018-11-21T09:19:53.705Z,20.73
2018-11-21T09:22:41.465Z,16.70
2018-11-21T09:25:29.358Z,18.70
2018-11-21T09:28:17.034Z,15.67
2018-11-21T09:31:04.575Z,21.23
2018-11-21T09:36:07.759Z,16.47
2018-11-21T09:38:55.457Z,17.60
2018-11-21T09:41:43.089Z,20.93
2018-11-21T09:44:30.762Z,22.20
2018-11-21T09:47:18.349Z,17.53
2018-11-21T09:50:06.064Z,21.60
2018-11-21T09:52:53.699Z,26.93
2018-11-21T09:55:22.269Z,16.30
2018-11-21T09:58:09.858Z,23.93
2018-11-21T10:01:17.257Z,15.33
2018-11-21T10:04:04.853Z,16.20
2018-11-21T10:06:55.188Z,17.60
2018-11-21T10:09:26.409Z,19.73
2018-11-21T10:12:14.061Z,17.13
2018-11-21T10:15:01.630Z,18.10
2018-11-21T10:17:49.330Z,18.47
2018-11-21T10:20:36.916Z,14.87
2018-11-21T10:23:24.813Z,16.10
2018-11-21T10:26:12.478Z,18.53
2018-11-21T10:29:00.209Z,18.93
2018-11-21T10:31:28.924Z,16.07
2018-11-21T10:34:16.486Z,15.60
2018-11-21T10:37:04.057Z,19.33
2018-11-21T10:39:51.729Z,23.70
2018-11-21T10:42:39.313Z,18.43
2018-11-21T10:45:27.794Z,18.17
2018-11-21T10:48:15.370Z,16.10
2018-11-21T10:51:02.989Z,20.03
2018-11-21T10:53:50.663Z,15.27
2018-11-21T10:56:38.537Z,15.90
2018-11-21T10:59:26.218Z,15.90
2018-11-21T11:02:13.897Z,14.57
2018-11-21T11:05:01.447Z,16.43
2018-11-21T11:07:49.245Z,15.07
2018-11-21T11:10:36.778Z,14.90
2018-11-21T11:13:24.625Z,18.13
2018-11-21T11:16:12.305Z,15.73
2018-11-21T11:18:59.975Z,18.23
2018-11-21T11:21:47.578Z,13.07
2018-11-21T11:24:35.246Z,17.80
2018-11-21T11:27:22.837Z,14.70
2018-11-21T11:30:10.501Z,17.60
2018-11-21T11:32:58.082Z,13.23
2018-11-21T11:35:45.811Z,14.57
2018-11-21T11:38:33.435Z,15.00
2018-11-21T11:41:21.136Z,14.60
2018-11-21T11:44:08.817Z,13.23
2018-11-21T11:46:56.609Z,16.63
2018-11-21T11:49:44.181Z,15.40
2018-11-21T11:52:31.836Z,15.57
2018-11-21T11:55:19.457Z,12.80
2018-11-21T11:58:07.149Z,13.63
2018-11-21T12:00:54.821Z,13.67
2018-11-21T12:03:42.672Z,11.27
2018-11-21T12:06:30.277Z,13.03
2018-11-21T12:09:18.023Z,14.30
2018-11-21T12:12:05.737Z,13.90
2018-11-21T12:14:53.467Z,10.70
2018-11-21T12:20:33.795Z,10.53
2018-11-21T12:23:21.337Z,12.07
2018-11-21T12:26:10.602Z,11.83
2018-11-21T12:28:56.484Z,11.93
2018-11-21T12:31:44.112Z,10.23
2018-11-21T12:34:31.820Z,12.27
2018-11-21T12:37:19.620Z,10.50
2018-11-21T12:40:07.181Z,10.97
2018-11-21T12:42:54.860Z,11.63
2018-11-21T12:45:42.519Z,9.40
2018-11-21T12:48:30.281Z,10.57
2018-11-21T12:51:17.817Z,9.03
2018-11-21T12:54:05.421Z,11.20
2018-11-21T12:56:53.054Z,10.57
2018-11-21T12:59:40.699Z,9.20
2018-11-21T13:02:28.286Z,10.47
2018-11-21T13:05:15.973Z,12.10
2018-11-21T13:08:03.529Z,8.37
2018-11-21T13:10:51.227Z,11.47
2018-11-21T13:13:38.825Z,11.40
2018-11-21T13:16:26.475Z,8.80
2018-11-21T13:19:14.060Z,9.10
2018-11-21T13:22:01.774Z,14.27
2018-11-21T13:24:49.367Z,11.33
2018-11-21T13:27:37.096Z,8.63
2018-11-21T13:30:27.688Z,9.30
2018-11-21T13:33:15.395Z,11.20
2018-11-21T13:36:03.038Z,7.87
2018-11-21T13:38:50.707Z,8.83
2018-11-21T13:41:38.301Z,9.50
2018-11-21T13:44:26.082Z,10.20
2018-11-21T13:47:13.911Z,7.70
2018-11-21T13:50:01.431Z,9.57
2018-11-21T13:52:49.049Z,10.30
2018-11-21T13:55:36.777Z,8.93
2018-11-21T13:58:24.489Z,8.40
2018-11-21T14:01:12.189Z,8.67
2018-11-21T14:03:59.863Z,11.10
2018-11-21T14:06:28.530Z,8.37
2018-11-21T14:08:57.094Z,7.63
2018-11-21T14:11:25.858Z,9.70
2018-11-21T14:14:13.747Z,9.07
2018-11-21T14:16:42.368Z,8.73
2018-11-21T14:19:29.966Z,8.50
2018-11-21T14:21:58.633Z,9.40
2018-11-21T14:24:46.313Z,8.93
2018-11-21T14:27:33.901Z,8.40
2018-11-21T14:30:21.534Z,10.60
2018-11-21T14:33:09.076Z,9.67
2018-11-21T14:35:56.683Z,9.07
2018-11-21T14:38:44.339Z,8.90
2018-11-21T14:41:32.087Z,8.93
2018-11-21T14:44:19.673Z,10.17
2018-11-21T14:46:50.292Z,10.50
2018-11-21T14:49:37.987Z,9.40
2018-11-21T14:52:25.579Z,8.43
2018-11-21T14:55:13.211Z,10.00
2018-11-21T14:58:00.895Z,8.00
2018-11-21T15:00:48.568Z,10.77
2018-11-21T15:03:36.467Z,8.93
2018-11-21T15:06:24.396Z,9.37
2018-11-21T15:09:12.224Z,10.70
2018-11-21T15:11:41.721Z,9.30
2018-11-21T15:14:29.372Z,8.47
2018-11-21T15:17:16.944Z,10.47
2018-11-21T15:20:04.594Z,7.87
2018-11-21T15:22:52.198Z,9.57
2018-11-21T15:25:39.862Z,8.70
2018-11-21T15:28:27.944Z,7.23
2018-11-21T15:30:56.137Z,8.67
2018-11-21T15:33:43.684Z,9.40
2018-11-21T15:36:12.478Z,8.93
2018-11-21T15:39:00.110Z,8.70
2018-11-21T15:41:28.825Z,9.03
2018-11-21T15:44:16.384Z,9.33
2018-11-21T15:47:04.100Z,8.13
2018-11-21T15:49:51.786Z,17.00
2018-11-21T15:52:39.449Z,9.47
2018-11-21T15:55:27.775Z,9.47
2018-11-21T15:58:15.398Z,7.50
2018-11-21T16:01:03.008Z,9.23
2018-11-21T16:03:50.600Z,7.73
2018-11-21T16:06:38.170Z,9.47
2018-11-21T16:09:28.528Z,9.30
2018-11-21T16:12:16.198Z,9.20
2018-11-21T16:15:03.824Z,7.67
2018-11-21T16:17:51.389Z,8.40
2018-11-21T16:20:20.320Z,8.07
2018-11-21T16:23:07.875Z,9.17
2018-11-21T16:25:55.471Z,7.60
2018-11-21T16:28:24.147Z,7.07
2018-11-21T16:31:11.882Z,7.10
2018-11-21T16:33:59.457Z,7.87
2018-11-21T16:36:47.120Z,6.70
2018-11-21T16:39:34.690Z,8.50
2018-11-21T16:42:22.252Z,8.30
2018-11-21T16:45:09.860Z,8.77
2018-11-21T16:47:38.643Z,8.53
2018-11-21T16:50:30.528Z,8.90
2018-11-21T16:53:18.119Z,9.77
2018-11-21T16:56:05.746Z,10.73
2018-11-21T16:58:53.405Z,6.80
2018-11-21T17:01:41.006Z,7.87
2018-11-21T17:04:28.631Z,11.27
2018-11-21T17:07:16.267Z,8.20
2018-11-21T17:10:03.883Z,9.03
2018-11-21T17:12:51.482Z,9.63
2018-11-21T17:15:39.081Z,14.70
2018-11-21T17:18:26.628Z,7.30
2018-11-21T17:21:14.210Z,9.17
2018-11-21T17:24:01.864Z,9.50
2018-11-21T17:26:30.605Z,9.50
2018-11-21T17:28:59.159Z,8.70
2018-11-21T17:31:46.876Z,10.43
2018-11-21T17:34:34.423Z,7.33
2018-11-21T17:37:22.079Z,8.97
2018-11-21T17:40:09.648Z,8.27
2018-11-21T17:42:57.316Z,8.40
2018-11-21T17:45:44.899Z,9.60
2018-11-21T17:48:32.568Z,8.70
2018-11-21T17:51:01.238Z,9.67
2018-11-21T17:53:29.831Z,8.53
2018-11-21T17:56:17.474Z,8.13
2018-11-21T17:59:05.059Z,7.20
2018-11-21T18:01:33.900Z,7.73
2018-11-21T18:04:21.468Z,10.33
2018-11-21T18:07:09.096Z,7.83
2018-11-21T18:09:37.746Z,9.20
2018-11-21T18:12:25.488Z,10.37
2018-11-21T18:15:13.192Z,7.47
2018-11-21T18:18:01.012Z,7.17
2018-11-21T18:20:29.586Z,8.50
2018-11-21T18:23:17.156Z,7.47
2018-11-21T18:25:52.675Z,8.03
2018-11-21T18:28:21.205Z,9.17
2018-11-21T18:31:09.025Z,8.50
2018-11-21T18:33:56.566Z,13.10
2018-11-21T18:36:44.151Z,7.73
2018-11-21T18:39:31.691Z,9.30
2018-11-21T18:42:19.295Z,7.90
2018-11-21T18:45:06.911Z,9.07
2018-11-21T18:47:54.562Z,8.07
2018-11-21T18:50:23.450Z,8.67
2018-11-21T18:53:11.115Z,8.40
2018-11-21T18:56:01.052Z,8.23
2018-11-21T18:59:08.216Z,9.70
2018-11-21T19:01:55.757Z,21.90
2018-11-21T19:04:43.477Z,11.10
2018-11-21T19:07:30.982Z,8.33
2018-11-21T19:10:18.750Z,10.00
2018-11-21T19:13:06.352Z,8.10
2018-11-21T19:15:53.959Z,9.07
2018-11-21T19:18:41.547Z,8.37
2018-11-21T19:21:29.158Z,7.03
2018-11-21T19:24:16.805Z,7.87
2018-11-21T19:27:04.490Z,7.83
2018-11-21T19:29:33.195Z,8.17
2018-11-21T19:32:20.887Z,9.63
2018-11-21T19:35:08.554Z,8.30
2018-11-21T19:37:56.208Z,8.83
2018-11-21T19:40:43.947Z,30.93
2018-11-21T19:43:31.633Z,11.30
2018-11-21T19:46:19.289Z,9.07
2018-11-21T19:49:06.980Z,8.03
2018-11-21T19:51:54.569Z,10.50
2018-11-21T19:54:23.268Z,8.63
2018-11-21T19:57:10.791Z,9.40
2018-11-21T19:59:43.523Z,10.10
2018-11-21T20:02:08.182Z,8.73
2018-11-21T20:04:36.806Z,8.17
2018-11-21T20:07:24.389Z,8.80
2018-11-21T20:09:53.003Z,9.43
2018-11-21T20:12:40.814Z,10.60
2018-11-21T20:15:29.748Z,8.77
2018-11-21T20:18:17.424Z,8.97
2018-11-21T20:21:05.118Z,10.13
2018-11-21T20:23:52.766Z,11.33
2018-11-21T20:26:40.299Z,10.87
2018-11-21T20:29:28.211Z,12.40
2018-11-21T20:32:15.779Z,10.63
2018-11-21T20:35:03.400Z,11.13
2018-11-21T20:40:26.647Z,10.40
2018-11-21T20:43:14.136Z,10.33
2018-11-21T20:45:42.904Z,10.70
2018-11-21T20:48:30.641Z,10.13
2018-11-21T20:51:18.278Z,9.07
2018-11-21T20:54:05.846Z,11.27
2018-11-21T20:56:53.517Z,10.07
2018-11-21T20:59:22.404Z,10.03
2018-11-21T21:02:10.184Z,10.03
2018-11-21T21:04:57.848Z,9.60
2018-11-21T21:07:45.472Z,9.80
2018-11-21T21:10:16.848Z,9.80
2018-11-21T21:12:45.451Z,8.93
2018-11-21T21:15:33.028Z,11.00
2018-11-21T21:18:20.692Z,10.53
2018-11-21T21:21:08.343Z,9.90
2018-11-21T21:23:55.899Z,9.53
2018-11-21T21:26:43.509Z,12.07
2018-11-21T21:29:12.178Z,11.07
2018-11-21T21:34:15.037Z,11.03
2018-11-21T21:37:02.754Z,11.07
2018-11-21T21:39:31.308Z,10.40
2018-11-21T21:42:19.197Z,10.27
2018-11-21T21:45:06.684Z,10.00
2018-11-21T21:47:36.142Z,11.00
2018-11-21T21:50:23.563Z,10.20
2018-11-21T21:53:11.234Z,8.97
2018-11-21T21:55:39.770Z,9.63
2018-11-21T21:58:08.385Z,10.67
2018-11-21T22:00:55.968Z,10.23
2018-11-21T22:03:43.604Z,10.30
2018-11-21T22:06:31.220Z,9.53
2018-11-21T22:09:18.893Z,10.33
2018-11-21T22:12:06.494Z,9.43
2018-11-21T22:14:54.124Z,10.37
2018-11-21T22:19:57.389Z,9.90
2018-11-21T22:22:45.064Z,13.53
2018-11-21T22:25:32.697Z,11.90
2018-11-21T22:28:20.421Z,10.53
2018-11-21T22:31:07.973Z,11.40
2018-11-21T22:33:55.661Z,10.83
2018-11-21T22:36:43.226Z,10.60
2018-11-21T22:39:30.972Z,10.60
2018-11-21T22:42:18.510Z,10.30
2018-11-21T22:45:06.135Z,10.63
2018-11-21T22:47:53.894Z,10.90
2018-11-21T22:50:41.503Z,11.70
2018-11-21T22:53:10.193Z,10.40
2018-11-21T22:55:38.928Z,10.43
2018-11-21T22:58:07.583Z,10.50
2018-11-21T23:00:55.375Z,10.53
2018-11-21T23:03:42.990Z,11.60
2018-11-21T23:06:30.752Z,10.70
2018-11-21T23:09:18.348Z,10.63
2018-11-21T23:12:06.021Z,10.13
2018-11-21T23:14:53.614Z,11.47
2018-11-21T23:19:56.468Z,10.83
2018-11-21T23:22:44.177Z,11.13
2018-11-21T23:25:31.777Z,13.13
2018-11-21T23:28:19.441Z,11.07
2018-11-21T23:30:48.055Z,10.20
2018-11-21T23:33:35.655Z,11.83
2018-11-21T23:36:23.274Z,12.77
2018-11-21T23:39:11.009Z,10.03
2018-11-21T23:41:58.615Z,10.67
2018-11-21T23:44:46.291Z,12.60
2018-11-21T23:47:33.993Z,12.40
2018-11-21T23:50:21.813Z,15.13
2018-11-21T23:53:09.457Z,14.23
2018-11-21T23:55:57.110Z,12.90
2018-11-21T23:58:44.716Z,17.87
